Latest Coastal Weather Observations for Robe Airport

IDS60701

Issued at 8:21 pm CDT Friday 20 January 2017 (issued every 10 minutes, with the page automatically refreshed every 10 minutes)

About coastal observations | Map of coastal stations | Coastal observations for SA | Marine services | Other Formats
Station Details ID: 026105 Name: ROBE AIRFIELD Lat: -37.18 Lon: 139.81 Height: 3.0 m
Data from the previous 72 hours. | See also: Recent months at Robe Airport
Date/Time
CDT
Temp
°C
Wind Pressure Rain since
9am
mm
Weather Cloud Vis
km
Sea
Height
m
Swell
Dir  Spd
kts
Gust
kts
hPa Trend Height
m
Period
s
Dir
20/08:00pm 15.9 S 8 12 1011.1 - 0.0 - - - - - - -
20/07:30pm 16.6 S 11 15 1010.7 - 0.0 - - - - - - -
20/07:00pm 17.0 S 12 17 1010.1 - 0.0 - - - - - - -
20/06:30pm 17.4 S 13 18 1009.8 - 0.0 - - - - - - -
20/06:00pm 17.6 S 12 19 1009.6 - 0.0 - - - - - - -
20/05:30pm 17.9 S 15 19 1009.5 - 0.0 - - - - - - -
20/05:00pm 18.3 SSW 16 21 1009.3 - 0.0 - - - - - - -
20/04:30pm 18.6 SSW 15 21 1009.1 - 0.0 - - - - - - -
20/04:00pm 18.6 SSW 16 21 1008.9 - 0.0 - - - - - - -
20/03:30pm 18.5 S 14 22 1008.5 - 0.0 - - - - - - -
20/03:00pm 18.3 S 15 22 1008.1 - 0.0 - - - - - - -
20/02:30pm 18.3 SSW 16 22 1007.9 - 0.0 - - - - - - -
20/02:00pm 18.1 S 15 21 1007.6 - 0.0 - - - - - - -
20/01:30pm 18.0 SSW 16 23 1007.2 - 0.0 - - - - - - -
20/01:00pm 17.9 S 17 23 1006.9 - 0.0 - - - - - - -
20/12:30pm 17.5 S 18 25 1006.7 - 0.0 - - - - - - -
20/12:00pm 17.7 S 17 24 1006.5 - 0.0 - - - - - - -
20/11:30am 17.2 S 19 25 1006.1 - 0.0 - - - - - - -
20/11:00am 16.9 S 21 29 1006.0 - 0.0 - - - - - - -
20/10:30am 17.1 SSW 19 26 1005.5 - 0.0 - - - - - - -
20/10:00am 16.3 SSW 15 21 1005.2 - 0.0 - - - - - - -
20/09:30am 15.7 SSW 16 22 1004.8 - 0.0 - - - - - - -
20/09:00am 15.5 S 15 21 1004.2 - 30.6 - - - - - - -
20/08:30am 15.3 SSW 15 21 1003.6 - 30.6 - - - - - - -
20/08:00am 14.8 SSW 13 18 1003.1 - 30.6 - - - - - - -
20/07:30am 14.6 SSW 14 19 1002.1 - 30.6 - - - - - - -
20/07:00am 14.4 S 14 20 1001.2 - 30.6 - - - - - - -
20/06:30am 14.5 SSW 14 19 1000.5 - 30.6 - - - - - - -
20/06:00am 14.5 SSW 16 22 1000.2 - 30.6 - - - - - - -
20/05:30am 14.4 S 16 23 999.6 - 30.6 - - - - - - -
20/05:00am 14.6 SSW 17 26 999.0 - 30.6 - - - - - - -
20/04:57am 14.7 SSW 16 26 999.0 - 30.6 - - - - - - -
20/04:30am 14.8 SSW 15 20 998.5 - 30.6 - - - - - - -
20/04:00am 15.0 SW 10 16 998.0 - 30.4 - - - - - - -
20/03:30am 15.2 WSW 3 6 996.8 - 30.4 - - - - - - -
20/03:00am 15.1 WSW 3 8 996.6 - 30.4 - - - - - - -
20/02:30am 15.0 CALM 0 0 997.0 - 30.4 - - - - - - -
20/02:00am 14.9 E 3 5 996.2 - 30.4 - - - - - - -
20/01:30am 14.9 ENE 7 11 995.8 - 30.4 - - - - - - -
20/01:00am 14.3 E 11 16 995.9 - 30.0 - - - - - - -
20/12:30am 14.3 ESE 14 21 997.3 - 29.0 - - - - - - -
20/12:24am 14.3 ESE 14 21 997.5 - 28.4 - - - - - - -
20/12:00am 14.7 SSE 18 27 999.6 - 22.8 Rain - - - - - -
 
Date/Time
CDT
Temp
°C
Wind Pressure Rain since
9am
mm
Weather Cloud Vis
km
Sea
Height
m
Swell
Dir  Spd
kts
Gust
kts
hPa Trend Height
m
Period
s
Dir
19/11:58pm 14.7 SSE 18 26 1001.1 - 22.8 - - - - - - -
19/11:30pm 14.9 S 18 24 1003.1 - 20.6 - - - - - - -
19/11:00pm 15.1 SSE 15 23 1002.3 - 20.4 - - - - - - -
19/10:30pm 15.5 S 16 20 1003.1 - 18.8 - - - - - - -
19/10:00pm 16.1 SW 8 16 1002.6 - 12.8 - - - - - - -
19/09:54pm 16.5 SW 7 10 1002.0 - 10.8 - - - - - - -
19/09:30pm 17.2 SW 6 13 999.9 - 7.2 - - - - - - -
19/09:00pm 19.6 SW 7 10 1000.2 - 2.2 Rain - - - - - -
19/08:55pm 20.5 SSW 8 12 999.2 - 0.2 - - - - - - -
19/08:30pm 24.4 ESE 6 8 997.2 - 0.0 - - - - - - -
19/08:00pm 24.9 E 6 8 998.1 - 0.0 - - - - - - -
19/07:30pm 26.0 ENE 6 10 999.1 - 0.0 - - - - - - -
19/07:00pm 26.4 NE 6 9 999.8 - 0.0 - - - - - - -
19/06:30pm 25.6 SSE 7 10 1000.2 - 0.0 - - - - - - -
19/06:00pm 25.0 SSE 8 12 1001.1 - 0.0 - - - - - - -
19/05:30pm 24.7 SSE 10 13 1001.8 - 0.0 - - - - - - -
19/05:00pm 24.7 S 9 11 1003.0 - 0.0 - - - - - - -
19/04:30pm 25.0 SSE 9 13 1003.8 - 0.0 - - - - - - -
19/04:00pm 24.5 SSE 9 12 1004.8 - 0.0 - - - - - - -
19/03:30pm 23.9 S 8 11 1005.7 - 0.0 - - - - - - -
19/03:00pm 21.2 SSE 8 12 1006.0 - 0.0 - - - - - - -
19/02:30pm 21.4 SSW 5 9 1007.3 - 0.0 - - - - - - -
19/02:00pm 25.1 E 6 11 1007.4 - 0.0 - - - - - - -
19/01:30pm 24.1 E 5 8 1008.0 - 0.0 - - - - - - -
19/01:00pm 24.2 E 4 7 1008.9 - 0.0 - - - - - - -
19/12:30pm 23.3 ESE 5 7 1009.4 - 0.0 - - - - - - -
19/12:00pm 22.5 ENE 5 8 1010.3 - 0.0 - - - - - - -
19/11:30am 21.9 E 6 9 1010.8 - 0.0 - - - - - - -
19/11:00am 20.3 ESE 7 11 1011.3 - 0.0 - - - - - - -
19/10:30am 19.4 ESE 8 12 1011.7 - 0.0 - - - - - - -
19/10:00am 18.2 ESE 10 13 1012.1 - 0.0 - - - - - - -
19/09:30am 17.0 ESE 11 15 1012.5 - 0.0 - - - - - - -
19/09:00am 16.1 ESE 10 14 1012.8 - 0.0 - - - - - - -
19/08:30am 14.4 ESE 10 15 1013.1 - 0.0 - - - - - - -
19/08:00am 13.2 ESE 10 15 1013.4 - 0.0 - - - - - - -
19/07:30am 12.2 ESE 5 8 1013.6 - 0.0 - - - - - - -
19/07:00am 10.8 ESE 6 9 1013.7 - 0.0 - - - - - - -
19/06:30am 10.0 ESE 8 10 1013.4 - 0.0 - - - - - - -
19/06:00am 10.0 ESE 8 11 1013.6 - 0.0 - - - - - - -
19/05:30am 10.4 ESE 9 12 1013.5 - 0.0 - - - - - - -
19/05:00am 10.6 SE 9 13 1013.4 - 0.0 - - - - - - -
19/04:30am 10.4 SE 8 11 1013.6 - 0.0 - - - - - - -
19/04:00am 10.8 ESE 9 13 1013.6 - 0.0 - - - - - - -
19/03:30am 10.5 ESE 8 10 1014.0 - 0.0 - - - - - - -
19/03:00am 10.4 ESE 6 9 1014.3 - 0.0 - - - - - - -
19/02:30am 10.8 ESE 6 10 1014.7 - 0.0 - - - - - - -
19/02:00am 11.5 ESE 7 10 1015.1 - 0.0 - - - - - - -
19/01:30am 12.2 SE 9 13 1015.3 - 0.0 - - - - - - -
19/01:00am 12.7 SE 11 15 1015.4 - 0.0 - - - - - - -
19/12:30am 13.0 SE 11 15 1015.7 - 0.0 - - - - - - -
19/12:00am 13.4 SE 12 17 1016.0 - 0.0 - - - - - - -
 
Date/Time
CDT
Temp
°C
Wind Pressure Rain since
9am
mm
Weather Cloud Vis
km
Sea
Height
m
Swell
Dir  Spd
kts
Gust
kts
hPa Trend Height
m
Period
s
Dir
18/11:30pm 13.7 SE 13 18 1016.3 - 0.0 - - - - - - -
18/11:00pm 14.0 SE 12 18 1016.4 - 0.0 - - - - - - -
18/10:30pm 14.4 SE 13 19 1016.6 - 0.0 - - - - - - -
18/10:00pm 14.6 SE 13 20 1016.5 - 0.0 - - - - - - -
18/09:30pm 15.2 SE 13 21 1016.1 - 0.0 - - - - - - -
18/09:00pm 15.6 SSE 14 23 1015.9 - 0.0 - - - - - - -
18/08:30pm 15.4 SSE 14 19 1015.8 - 0.0 - - - - - - -
18/08:00pm 16.1 SSE 16 23 1015.7 - 0.0 - - - - - - -
18/07:30pm 16.7 SSE 16 23 1015.6 - 0.0 - - - - - - -
18/07:00pm 17.4 SSE 17 23 1015.7 - 0.0 - - - - - - -
18/06:30pm 18.1 SSE 17 24 1015.5 - 0.0 - - - - - - -
18/06:00pm 18.4 SSE 16 25 1015.6 - 0.0 - - - - - - -
18/05:30pm 18.6 S 17 23 1015.7 - 0.0 - - - - - - -
18/05:00pm 19.0 SSE 17 23 1015.9 - 0.0 - - - - - - -
18/04:30pm 18.9 S 18 24 1015.9 - 0.0 - - - - - - -
18/04:00pm 19.5 SSE 17 23 1016.0 - 0.0 - - - - - - -
18/03:30pm 19.6 S 16 24 1016.4 - 0.0 - - - - - - -
18/03:00pm 19.9 S 15 23 1016.6 - 0.0 - - - - - - -
18/02:30pm 19.6 S 15 23 1016.7 - 0.0 - - - - - - -
18/02:00pm 20.0 SSE 11 21 1017.0 - 0.0 - - - - - - -
18/01:30pm 19.4 SSE 13 20 1017.0 - 0.0 - - - - - - -
18/01:00pm 19.0 S 13 18 1017.5 - 0.0 - - - - - - -
18/12:30pm 19.2 S 13 20 1017.5 - 0.0 - - - - - - -
18/12:00pm 19.7 SSE 13 20 1017.5 - 0.0 - - - - - - -
18/11:30am 19.2 S 13 18 1017.7 - 0.0 - - - - - - -
18/11:00am 18.9 SSE 12 19 1017.6 - 0.0 - - - - - - -
18/10:30am 18.0 S 14 18 1017.3 - 0.0 - - - - - - -
18/10:00am 18.1 SSE 13 18 1017.0 - 0.0 - - - - - - -
18/09:30am 16.5 S 14 19 1016.6 - 0.0 - - - - - - -
18/09:00am 16.7 SSE 14 20 1016.4 - 0.0 - - - - - - -
18/08:30am 16.4 S 12 16 1016.6 - 0.0 - - - - - - -
18/08:00am 16.3 SSE 10 15 1016.2 - 0.0 - - - - - - -
18/07:30am 16.1 S 11 17 1015.8 - 0.0 - - - - - - -
18/07:00am 15.9 S 12 17 1015.5 - 0.0 - - - - - - -
18/06:30am 15.8 SSE 12 17 1015.0 - 0.0 - - - - - - -
18/06:00am 15.8 S 13 16 1014.3 - 0.0 - - - - - - -
18/05:30am 15.7 S 13 17 1013.4 - 0.0 - - - - - - -
18/05:00am 15.6 S 7 13 1013.2 - 0.0 - - - - - - -
18/04:30am 15.4 S 10 13 1012.3 - 0.0 - - - - - - -
18/04:00am 15.3 S 11 17 1012.2 - 0.0 - - - - - - -
18/03:30am 14.8 SSE 9 11 1011.7 - 0.0 - - - - - - -
18/03:00am 14.2 SSE 6 10 1011.6 - 0.0 - - - - - - -
18/02:30am 14.2 S 14 19 1012.2 - 0.0 - - - - - - -
18/02:00am 14.8 S 11 16 1012.2 - 0.0 - - - - - - -
18/01:30am 15.3 S 10 14 1012.3 - 0.0 - - - - - - -
18/01:00am 15.9 S 15 20 1011.7 - 0.0 - - - - - - -
18/12:30am 16.5 S 10 14 1012.4 - 0.0 - - - - - - -
18/12:00am 16.5 S 11 16 1011.9 - 0.0 - - - - - - -
 
Date/Time
CDT
Temp
°C
Wind Pressure Rain since
9am
mm
Weather Cloud Vis
km
Sea
Height
m
Swell
Dir  Spd
kts
Gust
kts
hPa Trend Height
m
Period
s
Dir
17/11:30pm 16.9 SSE 11 16 1012.0 - 0.0 - - - - - - -
17/11:00pm 17.1 S 12 17 1012.3 - 0.0 - - - - - - -
17/10:30pm 17.3 SSE 12 17 1011.8 - 0.0 - - - - - - -
17/10:00pm 17.4 S 11 16 1012.3 - 0.0 - - - - - - -
17/09:30pm 17.5 SSE 11 17 1012.0 - 0.0 - - - - - - -
17/09:00pm 17.8 S 14 19 1012.3 - 0.0 - - - - - - -
17/08:30pm 18.0 S 17 23 1012.4 - 0.0 - - - - - - -

Other Formats:

Comma delimited format used in spreadsheet applications
http://www.bom.gov.au/fwo/IDS60701/IDS60701.95816.axf

JavaScript Object Notation format (JSON) in row-major order
http://www.bom.gov.au/fwo/IDS60701/IDS60701.95816.json